sensor_id;sensor_type;location;lat;lon;timestamp;P1;durP1;ratioP1;P2;durP2;ratioP2
62654;SDS011;48717;55.556;37.816;2023-08-12T00:02:15;15.02;;;10.20;;
62654;SDS011;48717;55.556;37.816;2023-08-12T00:04:42;12.13;;;9.75;;
62654;SDS011;48717;55.556;37.816;2023-08-12T00:07:09;14.88;;;10.07;;
62654;SDS011;48717;55.556;37.816;2023-08-12T00:09:37;12.82;;;9.77;;
62654;SDS011;48717;55.556;37.816;2023-08-12T00:12:04;11.80;;;10.15;;
62654;SDS011;48717;55.556;37.816;2023-08-12T00:14:31;11.13;;;9.80;;
62654;SDS011;48717;55.556;37.816;2023-08-12T00:16:58;12.43;;;10.73;;
62654;SDS011;48717;55.556;37.816;2023-08-12T00:19:25;37.35;;;27.95;;
62654;SDS011;48717;55.556;37.816;2023-08-12T00:21:52;27.98;;;19.52;;
62654;SDS011;48717;55.556;37.816;2023-08-12T00:24:19;14.35;;;12.25;;
62654;SDS011;48717;55.556;37.816;2023-08-12T00:26:47;14.50;;;11.20;;
62654;SDS011;48717;55.556;37.816;2023-08-12T00:29:14;12.73;;;10.63;;
62654;SDS011;48717;55.556;37.816;2023-08-12T00:31:41;11.35;;;9.65;;
62654;SDS011;48717;55.556;37.816;2023-08-12T00:34:08;15.45;;;10.48;;
62654;SDS011;48717;55.556;37.816;2023-08-12T00:36:35;12.95;;;10.63;;
62654;SDS011;48717;55.556;37.816;2023-08-12T00:39:02;14.15;;;10.18;;
62654;SDS011;48717;55.556;37.816;2023-08-12T00:41:30;13.82;;;10.10;;
62654;SDS011;48717;55.556;37.816;2023-08-12T00:43:57;16.27;;;10.77;;
62654;SDS011;48717;55.556;37.816;2023-08-12T00:46:25;15.18;;;11.07;;
62654;SDS011;48717;55.556;37.816;2023-08-12T00:48:52;11.38;;;10.10;;
62654;SDS011;48717;55.556;37.816;2023-08-12T00:51:19;11.95;;;9.95;;
62654;SDS011;48717;55.556;37.816;2023-08-12T00:53:47;12.88;;;10.63;;
62654;SDS011;48717;55.556;37.816;2023-08-12T00:56:14;14.13;;;10.85;;
62654;SDS011;48717;55.556;37.816;2023-08-12T00:58:42;13.90;;;11.25;;
62654;SDS011;48717;55.556;37.816;2023-08-12T01:01:10;15.18;;;11.25;;
62654;SDS011;48717;55.556;37.816;2023-08-12T01:03:41;14.75;;;10.75;;
62654;SDS011;48717;55.556;37.816;2023-08-12T01:06:08;11.80;;;10.65;;
62654;SDS011;48717;55.556;37.816;2023-08-12T01:08:35;12.18;;;10.07;;
62654;SDS011;48717;55.556;37.816;2023-08-12T01:11:04;15.15;;;10.85;;
62654;SDS011;48717;55.556;37.816;2023-08-12T01:13:52;11.38;;;9.80;;
62654;SDS011;48717;55.556;37.816;2023-08-12T01:16:32;18.58;;;10.60;;
62654;SDS011;48717;55.556;37.816;2023-08-12T01:19:04;12.90;;;10.73;;
62654;SDS011;48717;55.556;37.816;2023-08-12T01:21:33;13.50;;;10.75;;
62654;SDS011;48717;55.556;37.816;2023-08-12T01:24:05;27.63;;;21.05;;
62654;SDS011;48717;55.556;37.816;2023-08-12T01:26:33;13.93;;;10.98;;
62654;SDS011;48717;55.556;37.816;2023-08-12T01:29:00;14.80;;;12.25;;
62654;SDS011;48717;55.556;37.816;2023-08-12T01:31:39;17.17;;;11.95;;
62654;SDS011;48717;55.556;37.816;2023-08-12T01:34:26;18.20;;;11.50;;
62654;SDS011;48717;55.556;37.816;2023-08-12T01:37:03;14.02;;;10.80;;
62654;SDS011;48717;55.556;37.816;2023-08-12T01:39:32;13.90;;;11.07;;
62654;SDS011;48717;55.556;37.816;2023-08-12T01:42:02;17.95;;;10.98;;
62654;SDS011;48717;55.556;37.816;2023-08-12T01:44:30;12.45;;;10.45;;
62654;SDS011;48717;55.556;37.816;2023-08-12T01:46:57;17.13;;;11.18;;
62654;SDS011;48717;55.556;37.816;2023-08-12T01:49:26;14.13;;;10.35;;
62654;SDS011;48717;55.556;37.816;2023-08-12T01:51:53;13.35;;;10.48;;
62654;SDS011;48717;55.556;37.816;2023-08-12T01:54:23;15.57;;;11.10;;
62654;SDS011;48717;55.556;37.816;2023-08-12T01:56:50;16.08;;;10.30;;
62654;SDS011;48717;55.556;37.816;2023-08-12T01:59:17;12.85;;;10.85;;
62654;SDS011;48717;55.556;37.816;2023-08-12T02:01:44;15.75;;;10.18;;
62654;SDS011;48717;55.556;37.816;2023-08-12T02:04:11;17.08;;;11.32;;
62654;SDS011;48717;55.556;37.816;2023-08-12T02:06:38;19.80;;;11.95;;
62654;SDS011;48717;55.556;37.816;2023-08-12T02:09:06;16.42;;;11.43;;
62654;SDS011;48717;55.556;37.816;2023-08-12T02:11:33;13.73;;;11.10;;
62654;SDS011;48717;55.556;37.816;2023-08-12T02:14:00;17.85;;;12.48;;
62654;SDS011;48717;55.556;37.816;2023-08-12T02:16:27;18.25;;;10.65;;
62654;SDS011;48717;55.556;37.816;2023-08-12T02:19:15;13.38;;;9.90;;
62654;SDS011;48717;55.556;37.816;2023-08-12T02:21:42;16.67;;;10.93;;
62654;SDS011;48717;55.556;37.816;2023-08-12T02:24:10;18.35;;;11.30;;
62654;SDS011;48717;55.556;37.816;2023-08-12T02:26:38;20.67;;;11.55;;
62654;SDS011;48717;55.556;37.816;2023-08-12T02:29:05;15.43;;;11.23;;
62654;SDS011;48717;55.556;37.816;2023-08-12T02:31:32;16.65;;;12.35;;
62654;SDS011;48717;55.556;37.816;2023-08-12T02:34:00;27.33;;;19.98;;
62654;SDS011;48717;55.556;37.816;2023-08-12T02:36:27;16.45;;;11.93;;
62654;SDS011;48717;55.556;37.816;2023-08-12T02:38:56;17.85;;;11.10;;
62654;SDS011;48717;55.556;37.816;2023-08-12T02:41:23;17.58;;;11.52;;
62654;SDS011;48717;55.556;37.816;2023-08-12T02:43:50;19.15;;;11.13;;
62654;SDS011;48717;55.556;37.816;2023-08-12T02:46:18;15.48;;;10.82;;
62654;SDS011;48717;55.556;37.816;2023-08-12T02:48:45;18.55;;;11.02;;
62654;SDS011;48717;55.556;37.816;2023-08-12T02:51:14;19.30;;;11.73;;
62654;SDS011;48717;55.556;37.816;2023-08-12T02:53:41;15.63;;;10.70;;
62654;SDS011;48717;55.556;37.816;2023-08-12T02:56:08;17.77;;;10.90;;
62654;SDS011;48717;55.556;37.816;2023-08-12T02:58:35;26.75;;;15.88;;
62654;SDS011;48717;55.556;37.816;2023-08-12T03:01:04;11.73;;;10.35;;
62654;SDS011;48717;55.556;37.816;2023-08-12T03:03:31;25.05;;;14.88;;
62654;SDS011;48717;55.556;37.816;2023-08-12T03:05:58;19.27;;;10.70;;
62654;SDS011;48717;55.556;37.816;2023-08-12T03:08:27;14.55;;;10.82;;
62654;SDS011;48717;55.556;37.816;2023-08-12T03:10:58;21.05;;;14.80;;
62654;SDS011;48717;55.556;37.816;2023-08-12T03:13:27;16.45;;;11.20;;
62654;SDS011;48717;55.556;37.816;2023-08-12T03:15:54;19.02;;;11.93;;
62654;SDS011;48717;55.556;37.816;2023-08-12T03:18:22;13.65;;;9.77;;
62654;SDS011;48717;55.556;37.816;2023-08-12T03:20:53;13.30;;;9.40;;
62654;SDS011;48717;55.556;37.816;2023-08-12T03:23:23;18.67;;;9.93;;
62654;SDS011;48717;55.556;37.816;2023-08-12T03:25:51;14.50;;;9.88;;
62654;SDS011;48717;55.556;37.816;2023-08-12T03:28:19;14.00;;;10.52;;
62654;SDS011;48717;55.556;37.816;2023-08-12T03:30:51;13.32;;;10.18;;
62654;SDS011;48717;55.556;37.816;2023-08-12T03:33:23;15.45;;;10.20;;
62654;SDS011;48717;55.556;37.816;2023-08-12T03:35:52;14.40;;;10.65;;
62654;SDS011;48717;55.556;37.816;2023-08-12T03:38:19;15.30;;;10.27;;
62654;SDS011;48717;55.556;37.816;2023-08-12T03:40:46;15.25;;;10.50;;
62654;SDS011;48717;55.556;37.816;2023-08-12T03:43:16;13.88;;;11.40;;
62654;SDS011;48717;55.556;37.816;2023-08-12T03:45:44;20.40;;;12.23;;
62654;SDS011;48717;55.556;37.816;2023-08-12T03:48:15;19.55;;;12.68;;
62654;SDS011;48717;55.556;37.816;2023-08-12T03:50:48;21.05;;;11.95;;
62654;SDS011;48717;55.556;37.816;2023-08-12T03:53:16;17.88;;;13.90;;
62654;SDS011;48717;55.556;37.816;2023-08-12T03:55:44;20.02;;;12.57;;
62654;SDS011;48717;55.556;37.816;2023-08-12T03:58:14;17.70;;;12.05;;
62654;SDS011;48717;55.556;37.816;2023-08-12T04:00:42;17.70;;;12.18;;
62654;SDS011;48717;55.556;37.816;2023-08-12T04:03:14;16.30;;;11.95;;
62654;SDS011;48717;55.556;37.816;2023-08-12T04:05:51;21.70;;;12.60;;
62654;SDS011;48717;55.556;37.816;2023-08-12T04:08:21;18.95;;;11.98;;
62654;SDS011;48717;55.556;37.816;2023-08-12T04:10:49;16.27;;;11.73;;
62654;SDS011;48717;55.556;37.816;2023-08-12T04:13:17;17.48;;;10.60;;
62654;SDS011;48717;55.556;37.816;2023-08-12T04:15:47;14.98;;;10.57;;
62654;SDS011;48717;55.556;37.816;2023-08-12T04:18:16;15.80;;;10.13;;
62654;SDS011;48717;55.556;37.816;2023-08-12T04:20:48;14.65;;;10.13;;
62654;SDS011;48717;55.556;37.816;2023-08-12T04:23:17;14.00;;;9.55;;
62654;SDS011;48717;55.556;37.816;2023-08-12T04:25:46;17.25;;;11.40;;
62654;SDS011;48717;55.556;37.816;2023-08-12T04:28:15;13.07;;;10.23;;
62654;SDS011;48717;55.556;37.816;2023-08-12T04:30:43;12.70;;;10.05;;
62654;SDS011;48717;55.556;37.816;2023-08-12T04:33:15;13.35;;;10.23;;
62654;SDS011;48717;55.556;37.816;2023-08-12T04:35:47;13.52;;;10.50;;
62654;SDS011;48717;55.556;37.816;2023-08-12T04:38:16;15.25;;;10.95;;
62654;SDS011;48717;55.556;37.816;2023-08-12T04:40:44;15.63;;;10.68;;
62654;SDS011;48717;55.556;37.816;2023-08-12T04:43:12;14.90;;;10.75;;
62654;SDS011;48717;55.556;37.816;2023-08-12T04:45:44;14.45;;;11.02;;
62654;SDS011;48717;55.556;37.816;2023-08-12T04:48:13;13.50;;;10.25;;
62654;SDS011;48717;55.556;37.816;2023-08-12T04:50:42;14.77;;;10.40;;
62654;SDS011;48717;55.556;37.816;2023-08-12T04:53:09;14.88;;;10.73;;
62654;SDS011;48717;55.556;37.816;2023-08-12T04:55:36;16.08;;;10.38;;
62654;SDS011;48717;55.556;37.816;2023-08-12T04:58:06;13.95;;;9.93;;
62654;SDS011;48717;55.556;37.816;2023-08-12T05:00:34;13.88;;;9.98;;
62654;SDS011;48717;55.556;37.816;2023-08-12T05:03:04;14.60;;;10.40;;
62654;SDS011;48717;55.556;37.816;2023-08-12T05:05:32;16.05;;;10.18;;
62654;SDS011;48717;55.556;37.816;2023-08-12T05:07:59;15.13;;;11.13;;
62654;SDS011;48717;55.556;37.816;2023-08-12T05:10:27;16.88;;;11.90;;
62654;SDS011;48717;55.556;37.816;2023-08-12T05:12:54;14.55;;;11.70;;
62654;SDS011;48717;55.556;37.816;2023-08-12T05:15:25;15.15;;;11.65;;
62654;SDS011;48717;55.556;37.816;2023-08-12T05:17:54;12.40;;;11.07;;
62654;SDS011;48717;55.556;37.816;2023-08-12T05:20:22;15.00;;;12.38;;
62654;SDS011;48717;55.556;37.816;2023-08-12T05:22:50;19.90;;;14.20;;
62654;SDS011;48717;55.556;37.816;2023-08-12T05:25:18;16.25;;;12.55;;
62654;SDS011;48717;55.556;37.816;2023-08-12T05:27:45;18.02;;;15.35;;
62654;SDS011;48717;55.556;37.816;2023-08-12T05:30:15;22.90;;;14.05;;
62654;SDS011;48717;55.556;37.816;2023-08-12T05:32:42;21.80;;;13.65;;
62654;SDS011;48717;55.556;37.816;2023-08-12T05:35:09;19.25;;;12.32;;
62654;SDS011;48717;55.556;37.816;2023-08-12T05:37:36;15.55;;;11.02;;
62654;SDS011;48717;55.556;37.816;2023-08-12T05:40:04;14.63;;;10.85;;
62654;SDS011;48717;55.556;37.816;2023-08-12T05:42:35;12.95;;;11.20;;
62654;SDS011;48717;55.556;37.816;2023-08-12T05:45:02;14.43;;;11.20;;
62654;SDS011;48717;55.556;37.816;2023-08-12T05:47:34;14.95;;;10.10;;
62654;SDS011;48717;55.556;37.816;2023-08-12T05:50:01;18.40;;;12.60;;
62654;SDS011;48717;55.556;37.816;2023-08-12T05:52:31;15.10;;;10.70;;
62654;SDS011;48717;55.556;37.816;2023-08-12T05:54:58;14.05;;;10.23;;
62654;SDS011;48717;55.556;37.816;2023-08-12T05:57:26;14.13;;;10.00;;
62654;SDS011;48717;55.556;37.816;2023-08-12T05:59:55;15.70;;;10.02;;
62654;SDS011;48717;55.556;37.816;2023-08-12T06:02:22;13.02;;;10.63;;
62654;SDS011;48717;55.556;37.816;2023-08-12T06:04:50;16.83;;;11.27;;
62654;SDS011;48717;55.556;37.816;2023-08-12T06:07:19;15.15;;;10.57;;
62654;SDS011;48717;55.556;37.816;2023-08-12T06:09:46;16.00;;;9.85;;
62654;SDS011;48717;55.556;37.816;2023-08-12T06:12:13;17.98;;;10.85;;
62654;SDS011;48717;55.556;37.816;2023-08-12T06:14:40;16.73;;;10.20;;
62654;SDS011;48717;55.556;37.816;2023-08-12T06:17:07;14.43;;;9.60;;
62654;SDS011;48717;55.556;37.816;2023-08-12T06:19:34;12.23;;;8.80;;
62654;SDS011;48717;55.556;37.816;2023-08-12T06:22:02;12.07;;;9.10;;
62654;SDS011;48717;55.556;37.816;2023-08-12T06:24:29;11.55;;;9.23;;
62654;SDS011;48717;55.556;37.816;2023-08-12T06:26:57;14.50;;;10.10;;
62654;SDS011;48717;55.556;37.816;2023-08-12T06:29:24;13.35;;;9.82;;
62654;SDS011;48717;55.556;37.816;2023-08-12T06:31:52;13.73;;;10.07;;
62654;SDS011;48717;55.556;37.816;2023-08-12T06:34:20;16.98;;;10.40;;
62654;SDS011;48717;55.556;37.816;2023-08-12T06:36:47;13.05;;;10.38;;
62654;SDS011;48717;55.556;37.816;2023-08-12T06:39:14;13.60;;;8.80;;
62654;SDS011;48717;55.556;37.816;2023-08-12T06:41:41;9.95;;;8.80;;
62654;SDS011;48717;55.556;37.816;2023-08-12T06:44:10;10.75;;;8.95;;
62654;SDS011;48717;55.556;37.816;2023-08-12T06:46:38;13.43;;;9.43;;
62654;SDS011;48717;55.556;37.816;2023-08-12T06:49:05;15.10;;;9.20;;
62654;SDS011;48717;55.556;37.816;2023-08-12T06:51:32;12.77;;;9.20;;
62654;SDS011;48717;55.556;37.816;2023-08-12T06:54:00;14.07;;;10.50;;
62654;SDS011;48717;55.556;37.816;2023-08-12T06:56:28;11.55;;;9.15;;
62654;SDS011;48717;55.556;37.816;2023-08-12T06:58:56;11.45;;;9.38;;
62654;SDS011;48717;55.556;37.816;2023-08-12T07:01:23;15.80;;;9.18;;
62654;SDS011;48717;55.556;37.816;2023-08-12T07:03:51;16.48;;;10.05;;
62654;SDS011;48717;55.556;37.816;2023-08-12T07:06:18;15.15;;;10.18;;
62654;SDS011;48717;55.556;37.816;2023-08-12T07:08:45;16.77;;;10.18;;
62654;SDS011;48717;55.556;37.816;2023-08-12T07:11:16;11.90;;;9.40;;
62654;SDS011;48717;55.556;37.816;2023-08-12T07:13:43;13.85;;;9.15;;
62654;SDS011;48717;55.556;37.816;2023-08-12T07:16:13;12.27;;;10.30;;
62654;SDS011;48717;55.556;37.816;2023-08-12T07:18:40;14.63;;;10.13;;
62654;SDS011;48717;55.556;37.816;2023-08-12T07:21:07;13.15;;;9.90;;
62654;SDS011;48717;55.556;37.816;2023-08-12T07:23:34;15.25;;;10.02;;
62654;SDS011;48717;55.556;37.816;2023-08-12T07:26:01;11.88;;;9.55;;
62654;SDS011;48717;55.556;37.816;2023-08-12T07:28:29;17.65;;;9.88;;
62654;SDS011;48717;55.556;37.816;2023-08-12T07:30:56;13.82;;;9.60;;
62654;SDS011;48717;55.556;37.816;2023-08-12T07:33:23;15.35;;;9.90;;
62654;SDS011;48717;55.556;37.816;2023-08-12T07:35:51;14.75;;;10.77;;
62654;SDS011;48717;55.556;37.816;2023-08-12T07:38:18;12.98;;;9.85;;
62654;SDS011;48717;55.556;37.816;2023-08-12T07:40:45;13.10;;;9.68;;
62654;SDS011;48717;55.556;37.816;2023-08-12T07:43:12;15.63;;;10.93;;
62654;SDS011;48717;55.556;37.816;2023-08-12T07:45:39;14.23;;;10.85;;
62654;SDS011;48717;55.556;37.816;2023-08-12T07:48:06;15.85;;;11.50;;
62654;SDS011;48717;55.556;37.816;2023-08-12T07:50:34;17.35;;;12.18;;
62654;SDS011;48717;55.556;37.816;2023-08-12T07:53:01;19.40;;;11.60;;
62654;SDS011;48717;55.556;37.816;2023-08-12T07:55:28;19.73;;;12.05;;
62654;SDS011;48717;55.556;37.816;2023-08-12T07:57:56;19.15;;;12.10;;
62654;SDS011;48717;55.556;37.816;2023-08-12T08:00:23;19.20;;;11.65;;
62654;SDS011;48717;55.556;37.816;2023-08-12T08:02:50;18.58;;;14.07;;
62654;SDS011;48717;55.556;37.816;2023-08-12T08:05:17;17.23;;;12.43;;
62654;SDS011;48717;55.556;37.816;2023-08-12T08:07:44;18.83;;;11.45;;
62654;SDS011;48717;55.556;37.816;2023-08-12T08:10:11;17.10;;;10.80;;
62654;SDS011;48717;55.556;37.816;2023-08-12T08:12:39;16.25;;;11.13;;
62654;SDS011;48717;55.556;37.816;2023-08-12T08:15:06;15.27;;;11.32;;
62654;SDS011;48717;55.556;37.816;2023-08-12T08:17:33;14.65;;;11.40;;
62654;SDS011;48717;55.556;37.816;2023-08-12T08:20:04;18.25;;;11.38;;
62654;SDS011;48717;55.556;37.816;2023-08-12T08:22:32;19.60;;;10.95;;
62654;SDS011;48717;55.556;37.816;2023-08-12T08:24:59;12.63;;;10.70;;
62654;SDS011;48717;55.556;37.816;2023-08-12T08:27:27;16.15;;;10.98;;
62654;SDS011;48717;55.556;37.816;2023-08-12T08:29:54;13.23;;;10.85;;
62654;SDS011;48717;55.556;37.816;2023-08-12T08:32:21;17.20;;;11.70;;
62654;SDS011;48717;55.556;37.816;2023-08-12T08:34:48;17.27;;;10.98;;
62654;SDS011;48717;55.556;37.816;2023-08-12T08:37:15;18.65;;;11.27;;
62654;SDS011;48717;55.556;37.816;2023-08-12T08:39:42;13.52;;;10.27;;
62654;SDS011;48717;55.556;37.816;2023-08-12T08:42:09;14.75;;;10.18;;
62654;SDS011;48717;55.556;37.816;2023-08-12T08:47:08;15.73;;;10.32;;
62654;SDS011;48717;55.556;37.816;2023-08-12T08:49:36;14.38;;;9.90;;
62654;SDS011;48717;55.556;37.816;2023-08-12T08:52:04;16.95;;;11.20;;
62654;SDS011;48717;55.556;37.816;2023-08-12T08:54:31;14.65;;;10.35;;
62654;SDS011;48717;55.556;37.816;2023-08-12T08:56:58;17.35;;;10.63;;
62654;SDS011;48717;55.556;37.816;2023-08-12T08:59:41;15.45;;;10.48;;
62654;SDS011;48717;55.556;37.816;2023-08-12T09:02:11;17.48;;;10.65;;
62654;SDS011;48717;55.556;37.816;2023-08-12T09:04:44;15.23;;;11.10;;
62654;SDS011;48717;55.556;37.816;2023-08-12T09:07:12;15.05;;;11.18;;
62654;SDS011;48717;55.556;37.816;2023-08-12T09:09:44;15.45;;;12.40;;
62654;SDS011;48717;55.556;37.816;2023-08-12T09:12:15;16.48;;;11.80;;
62654;SDS011;48717;55.556;37.816;2023-08-12T09:14:43;15.68;;;10.15;;
62654;SDS011;48717;55.556;37.816;2023-08-12T09:17:10;12.73;;;10.48;;
62654;SDS011;48717;55.556;37.816;2023-08-12T09:19:37;14.65;;;11.55;;
62654;SDS011;48717;55.556;37.816;2023-08-12T09:22:04;16.70;;;11.90;;
62654;SDS011;48717;55.556;37.816;2023-08-12T09:24:33;18.63;;;12.67;;
62654;SDS011;48717;55.556;37.816;2023-08-12T09:27:00;19.92;;;12.80;;
62654;SDS011;48717;55.556;37.816;2023-08-12T09:29:31;13.85;;;11.50;;
62654;SDS011;48717;55.556;37.816;2023-08-12T09:32:08;13.27;;;11.40;;
62654;SDS011;48717;55.556;37.816;2023-08-12T09:34:43;17.77;;;11.18;;
62654;SDS011;48717;55.556;37.816;2023-08-12T09:37:13;16.25;;;10.65;;
62654;SDS011;48717;55.556;37.816;2023-08-12T09:39:41;15.43;;;10.90;;
62654;SDS011;48717;55.556;37.816;2023-08-12T09:42:09;15.02;;;11.38;;
62654;SDS011;48717;55.556;37.816;2023-08-12T09:44:37;15.45;;;12.25;;
62654;SDS011;48717;55.556;37.816;2023-08-12T09:47:05;22.00;;;15.73;;
62654;SDS011;48717;55.556;37.816;2023-08-12T09:49:34;16.33;;;13.15;;
62654;SDS011;48717;55.556;37.816;2023-08-12T09:52:02;15.45;;;12.60;;
62654;SDS011;48717;55.556;37.816;2023-08-12T09:54:31;16.67;;;12.13;;
62654;SDS011;48717;55.556;37.816;2023-08-12T09:56:59;17.27;;;11.85;;
62654;SDS011;48717;55.556;37.816;2023-08-12T09:59:32;20.92;;;12.60;;
62654;SDS011;48717;55.556;37.816;2023-08-12T10:02:02;19.58;;;12.93;;
62654;SDS011;48717;55.556;37.816;2023-08-12T10:04:35;14.35;;;12.27;;
62654;SDS011;48717;55.556;37.816;2023-08-12T10:07:07;17.33;;;11.93;;
62654;SDS011;48717;55.556;37.816;2023-08-12T10:09:37;15.45;;;12.13;;
62654;SDS011;48717;55.556;37.816;2023-08-12T10:12:05;14.00;;;11.55;;
62654;SDS011;48717;55.556;37.816;2023-08-12T10:14:33;15.70;;;12.20;;
62654;SDS011;48717;55.556;37.816;2023-08-12T10:17:00;16.05;;;12.52;;
62654;SDS011;48717;55.556;37.816;2023-08-12T10:19:32;16.65;;;12.75;;
62654;SDS011;48717;55.556;37.816;2023-08-12T10:22:00;16.67;;;12.57;;
62654;SDS011;48717;55.556;37.816;2023-08-12T10:24:30;16.13;;;11.88;;
62654;SDS011;48717;55.556;37.816;2023-08-12T10:27:00;15.50;;;12.75;;
62654;SDS011;48717;55.556;37.816;2023-08-12T10:29:29;15.15;;;12.18;;
62654;SDS011;48717;55.556;37.816;2023-08-12T10:31:57;17.67;;;13.00;;
62654;SDS011;48717;55.556;37.816;2023-08-12T10:34:24;14.38;;;12.25;;
62654;SDS011;48717;55.556;37.816;2023-08-12T10:36:56;17.35;;;13.30;;
62654;SDS011;48717;55.556;37.816;2023-08-12T10:39:27;17.38;;;12.55;;
62654;SDS011;48717;55.556;37.816;2023-08-12T10:41:58;17.48;;;13.45;;
62654;SDS011;48717;55.556;37.816;2023-08-12T10:44:26;17.08;;;13.70;;
62654;SDS011;48717;55.556;37.816;2023-08-12T10:46:54;19.77;;;15.25;;
62654;SDS011;48717;55.556;37.816;2023-08-12T10:49:22;17.55;;;14.95;;
62654;SDS011;48717;55.556;37.816;2023-08-12T10:51:50;19.20;;;15.98;;
62654;SDS011;48717;55.556;37.816;2023-08-12T10:54:25;15.18;;;13.20;;
62654;SDS011;48717;55.556;37.816;2023-08-12T11:02:17;19.42;;;13.95;;
62654;SDS011;48717;55.556;37.816;2023-08-12T11:07:20;15.02;;;13.23;;
62654;SDS011;48717;55.556;37.816;2023-08-12T11:09:52;18.30;;;13.32;;
62654;SDS011;48717;55.556;37.816;2023-08-12T11:13:21;19.00;;;14.82;;
62654;SDS011;48717;55.556;37.816;2023-08-12T11:15:19;15.95;;;13.13;;
62654;SDS011;48717;55.556;37.816;2023-08-12T11:18:03;18.83;;;12.52;;
62654;SDS011;48717;55.556;37.816;2023-08-12T11:20:32;15.98;;;11.60;;
62654;SDS011;48717;55.556;37.816;2023-08-12T11:23:01;16.25;;;11.60;;
62654;SDS011;48717;55.556;37.816;2023-08-12T11:25:30;17.10;;;12.75;;
62654;SDS011;48717;55.556;37.816;2023-08-12T11:27:58;19.27;;;13.10;;
62654;SDS011;48717;55.556;37.816;2023-08-12T11:30:26;24.00;;;15.10;;
62654;SDS011;48717;55.556;37.816;2023-08-12T11:32:58;20.88;;;14.52;;
62654;SDS011;48717;55.556;37.816;2023-08-12T11:35:26;24.48;;;14.77;;
62654;SDS011;48717;55.556;37.816;2023-08-12T11:37:54;20.25;;;15.48;;
62654;SDS011;48717;55.556;37.816;2023-08-12T11:40:23;23.42;;;14.73;;
62654;SDS011;48717;55.556;37.816;2023-08-12T11:42:51;19.83;;;12.63;;
62654;SDS011;48717;55.556;37.816;2023-08-12T11:45:20;19.48;;;15.02;;
62654;SDS011;48717;55.556;37.816;2023-08-12T11:47:48;23.65;;;15.93;;
62654;SDS011;48717;55.556;37.816;2023-08-12T11:50:23;21.42;;;16.15;;
62654;SDS011;48717;55.556;37.816;2023-08-12T11:52:52;23.92;;;15.30;;
62654;SDS011;48717;55.556;37.816;2023-08-12T11:55:21;28.25;;;16.30;;
62654;SDS011;48717;55.556;37.816;2023-08-12T11:57:50;20.27;;;15.88;;
62654;SDS011;48717;55.556;37.816;2023-08-12T12:00:19;26.90;;;16.17;;
62654;SDS011;48717;55.556;37.816;2023-08-12T12:02:48;21.38;;;16.83;;
62654;SDS011;48717;55.556;37.816;2023-08-12T12:05:18;26.15;;;16.08;;
62654;SDS011;48717;55.556;37.816;2023-08-12T12:07:50;28.70;;;16.95;;
62654;SDS011;48717;55.556;37.816;2023-08-12T12:10:19;28.13;;;16.77;;
62654;SDS011;48717;55.556;37.816;2023-08-12T12:15:16;22.15;;;15.80;;
62654;SDS011;48717;55.556;37.816;2023-08-12T12:17:49;19.25;;;13.20;;
62654;SDS011;48717;55.556;37.816;2023-08-12T12:20:18;25.27;;;15.45;;
62654;SDS011;48717;55.556;37.816;2023-08-12T12:22:47;22.95;;;15.73;;
62654;SDS011;48717;55.556;37.816;2023-08-12T12:25:16;20.88;;;16.50;;
62654;SDS011;48717;55.556;37.816;2023-08-12T12:27:48;24.40;;;18.13;;
62654;SDS011;48717;55.556;37.816;2023-08-12T12:30:19;23.30;;;17.60;;
62654;SDS011;48717;55.556;37.816;2023-08-12T12:32:46;30.50;;;17.55;;
62654;SDS011;48717;55.556;37.816;2023-08-12T12:35:14;26.90;;;21.67;;
62654;SDS011;48717;55.556;37.816;2023-08-12T12:37:41;28.02;;;20.10;;
62654;SDS011;48717;55.556;37.816;2023-08-12T12:40:09;21.73;;;15.18;;
62654;SDS011;48717;55.556;37.816;2023-08-12T12:42:37;19.83;;;13.15;;
62654;SDS011;48717;55.556;37.816;2023-08-12T12:45:05;19.42;;;14.25;;
62654;SDS011;48717;55.556;37.816;2023-08-12T12:47:32;19.05;;;13.15;;
62654;SDS011;48717;55.556;37.816;2023-08-12T12:49:59;18.40;;;13.98;;
62654;SDS011;48717;55.556;37.816;2023-08-12T12:52:29;19.73;;;14.30;;
62654;SDS011;48717;55.556;37.816;2023-08-12T12:54:56;21.15;;;14.40;;
62654;SDS011;48717;55.556;37.816;2023-08-12T12:57:24;22.45;;;15.45;;
62654;SDS011;48717;55.556;37.816;2023-08-12T12:59:51;21.02;;;15.85;;
62654;SDS011;48717;55.556;37.816;2023-08-12T13:02:18;23.13;;;13.20;;
62654;SDS011;48717;55.556;37.816;2023-08-12T13:04:45;23.90;;;15.38;;
62654;SDS011;48717;55.556;37.816;2023-08-12T13:07:12;21.70;;;15.18;;
62654;SDS011;48717;55.556;37.816;2023-08-12T13:09:39;22.73;;;15.30;;
62654;SDS011;48717;55.556;37.816;2023-08-12T13:12:07;20.40;;;15.80;;
62654;SDS011;48717;55.556;37.816;2023-08-12T13:14:36;21.08;;;15.90;;
62654;SDS011;48717;55.556;37.816;2023-08-12T13:17:03;17.45;;;12.15;;
62654;SDS011;48717;55.556;37.816;2023-08-12T13:19:30;18.92;;;13.30;;
62654;SDS011;48717;55.556;37.816;2023-08-12T13:21:57;21.90;;;16.40;;
62654;SDS011;48717;55.556;37.816;2023-08-12T13:24:25;22.13;;;15.95;;
62654;SDS011;48717;55.556;37.816;2023-08-12T13:26:52;24.30;;;16.55;;
62654;SDS011;48717;55.556;37.816;2023-08-12T13:29:21;24.90;;;18.55;;
62654;SDS011;48717;55.556;37.816;2023-08-12T13:31:48;26.05;;;17.45;;
62654;SDS011;48717;55.556;37.816;2023-08-12T13:34:15;20.67;;;16.30;;
62654;SDS011;48717;55.556;37.816;2023-08-12T13:36:43;24.88;;;17.35;;
62654;SDS011;48717;55.556;37.816;2023-08-12T13:39:10;22.65;;;17.77;;
62654;SDS011;48717;55.556;37.816;2023-08-12T13:41:37;25.90;;;18.02;;
62654;SDS011;48717;55.556;37.816;2023-08-12T13:44:05;21.75;;;15.88;;
62654;SDS011;48717;55.556;37.816;2023-08-12T13:46:32;24.13;;;15.82;;
62654;SDS011;48717;55.556;37.816;2023-08-12T13:48:59;22.67;;;15.57;;
62654;SDS011;48717;55.556;37.816;2023-08-12T13:51:26;22.30;;;15.73;;
62654;SDS011;48717;55.556;37.816;2023-08-12T13:53:53;23.70;;;15.80;;
62654;SDS011;48717;55.556;37.816;2023-08-12T13:56:20;22.08;;;16.13;;
62654;SDS011;48717;55.556;37.816;2023-08-12T13:58:48;22.25;;;15.48;;
62654;SDS011;48717;55.556;37.816;2023-08-12T14:01:15;23.80;;;14.98;;
62654;SDS011;48717;55.556;37.816;2023-08-12T14:03:42;21.23;;;13.85;;
62654;SDS011;48717;55.556;37.816;2023-08-12T14:06:09;20.55;;;15.05;;
62654;SDS011;48717;55.556;37.816;2023-08-12T14:08:36;19.17;;;14.38;;
62654;SDS011;48717;55.556;37.816;2023-08-12T14:11:03;18.40;;;14.27;;
62654;SDS011;48717;55.556;37.816;2023-08-12T14:13:31;22.48;;;15.50;;
62654;SDS011;48717;55.556;37.816;2023-08-12T14:15:58;18.52;;;14.63;;
62654;SDS011;48717;55.556;37.816;2023-08-12T14:18:25;19.13;;;14.57;;
62654;SDS011;48717;55.556;37.816;2023-08-12T14:20:52;17.55;;;14.63;;
62654;SDS011;48717;55.556;37.816;2023-08-12T14:23:19;41.78;;;28.10;;
62654;SDS011;48717;55.556;37.816;2023-08-12T14:25:46;23.40;;;14.20;;
62654;SDS011;48717;55.556;37.816;2023-08-12T14:28:13;19.40;;;13.48;;
62654;SDS011;48717;55.556;37.816;2023-08-12T14:30:40;19.73;;;12.88;;
62654;SDS011;48717;55.556;37.816;2023-08-12T14:33:07;16.38;;;10.70;;